createdAt,value
2022-11-12T00:00:52.756Z,1019.60
2022-11-12T00:01:52.817Z,1019.71
2022-11-12T00:02:52.766Z,1019.66
2022-11-12T00:03:52.736Z,1019.67
2022-11-12T00:04:52.724Z,1019.64
2022-11-12T00:05:52.735Z,1019.62
2022-11-12T00:06:52.754Z,1019.74
2022-11-12T00:07:52.716Z,1019.70
2022-11-12T00:08:52.697Z,1019.72
2022-11-12T00:09:52.655Z,1019.65
2022-11-12T00:10:52.752Z,1019.63
2022-11-12T00:11:52.647Z,1019.69
2022-11-12T00:12:52.658Z,1019.66
2022-11-12T00:13:52.637Z,1019.70
2022-11-12T00:14:52.631Z,1019.72
2022-11-12T00:15:52.656Z,1019.70
2022-11-12T00:16:52.612Z,1019.72
2022-11-12T00:17:52.572Z,1019.68
2022-11-12T00:18:52.570Z,1019.64
2022-11-12T00:19:52.603Z,1019.63
2022-11-12T00:20:52.537Z,1019.64
2022-11-12T00:21:52.548Z,1019.67
2022-11-12T00:22:52.552Z,1019.70
2022-11-12T00:23:52.588Z,1019.65
2022-11-12T00:24:52.521Z,1019.66
2022-11-12T00:25:52.506Z,1019.68
2022-11-12T00:26:52.592Z,1019.70
2022-11-12T00:27:52.497Z,1019.74
2022-11-12T00:28:52.497Z,1019.67
2022-11-12T00:29:52.489Z,1019.69
2022-11-12T00:30:52.472Z,1019.69
2022-11-12T00:31:52.413Z,1019.66
2022-11-12T00:32:52.434Z,1019.70
2022-11-12T00:33:52.513Z,1019.70
2022-11-12T00:34:52.427Z,1019.69
2022-11-12T00:35:52.385Z,1019.59
2022-11-12T00:36:52.372Z,1019.61
2022-11-12T00:37:52.341Z,1019.63
2022-11-12T00:38:52.347Z,1019.63
2022-11-12T00:39:52.323Z,1019.58
2022-11-12T00:40:52.342Z,1019.64
2022-11-12T00:41:52.304Z,1019.69
2022-11-12T00:42:52.405Z,1019.65
2022-11-12T00:43:52.278Z,1019.66
2022-11-12T00:44:52.292Z,1019.63
2022-11-12T00:45:52.290Z,1019.63
2022-11-12T00:46:52.261Z,1019.63
2022-11-12T00:47:52.240Z,1019.61
2022-11-12T00:48:52.265Z,1019.61
2022-11-12T00:49:52.215Z,1019.57
2022-11-12T00:50:52.196Z,1019.58
2022-11-12T00:51:52.215Z,1019.62
2022-11-12T00:52:52.269Z,1019.59
2022-11-12T00:53:52.190Z,1019.69
2022-11-12T00:54:52.176Z,1019.70
2022-11-12T00:55:52.181Z,1019.67
2022-11-12T00:56:52.153Z,1019.62
2022-11-12T00:57:52.211Z,1019.63
2022-11-12T00:58:52.252Z,1019.64
2022-11-12T00:59:52.117Z,1019.62
2022-11-12T01:00:52.208Z,1019.62
2022-11-12T01:01:52.125Z,1019.61
2022-11-12T01:02:52.139Z,1019.58
2022-11-12T01:03:52.199Z,1019.65
2022-11-12T01:04:52.068Z,1019.64
2022-11-12T01:05:52.088Z,1019.60
2022-11-12T01:06:52.169Z,1019.61
2022-11-12T01:07:56.052Z,1019.61
2022-11-12T01:08:52.016Z,1019.59
2022-11-12T01:09:51.998Z,1019.62
2022-11-12T01:10:51.984Z,1019.58
2022-11-12T01:11:51.992Z,1019.63
2022-11-12T01:12:51.954Z,1019.59
2022-11-12T01:13:51.949Z,1019.62
2022-11-12T01:14:52.039Z,1019.61
2022-11-12T01:15:51.950Z,1019.58
2022-11-12T01:16:51.913Z,1019.61
2022-11-12T01:17:51.917Z,1019.64
2022-11-12T01:18:51.925Z,1019.60
2022-11-12T01:19:51.887Z,1019.59
2022-11-12T01:20:51.885Z,1019.58
2022-11-12T01:21:51.867Z,1019.58
2022-11-12T01:22:51.868Z,1019.58
2022-11-12T01:23:51.872Z,1019.61
2022-11-12T01:24:51.825Z,1019.60
2022-11-12T01:25:51.879Z,1019.59
2022-11-12T01:26:51.796Z,1019.55
2022-11-12T01:27:51.827Z,1019.59
2022-11-12T01:28:51.798Z,1019.58
2022-11-12T01:29:51.812Z,1019.58
2022-11-12T01:30:51.868Z,1019.61
2022-11-12T01:31:51.748Z,1019.62
2022-11-12T01:32:51.736Z,1019.57
2022-11-12T01:33:51.732Z,1019.57
2022-11-12T01:34:51.745Z,1019.56
2022-11-12T01:35:51.747Z,1019.57
2022-11-12T01:36:51.687Z,1019.56
2022-11-12T01:37:51.687Z,1019.59
2022-11-12T01:38:51.679Z,1019.53
2022-11-12T01:39:51.678Z,1019.55
2022-11-12T01:40:51.682Z,1019.54
2022-11-12T01:41:51.693Z,1019.57
2022-11-12T01:42:51.636Z,1019.56
2022-11-12T01:43:51.608Z,1019.56
2022-11-12T01:44:51.603Z,1019.51
2022-11-12T01:45:51.624Z,1019.53
2022-11-12T01:46:51.728Z,1019.53
2022-11-12T01:47:51.566Z,1019.46
2022-11-12T01:48:51.581Z,1019.49
2022-11-12T01:49:54.285Z,1019.46
2022-11-12T01:50:51.540Z,1019.47
2022-11-12T01:51:51.537Z,1019.48
2022-11-12T01:52:51.562Z,1019.53
2022-11-12T01:53:51.502Z,1019.42
2022-11-12T01:54:51.509Z,1019.42
2022-11-12T01:55:51.513Z,1019.44
2022-11-12T01:56:51.484Z,1019.44
2022-11-12T01:57:51.451Z,1019.44
2022-11-12T01:58:51.451Z,1019.43
2022-11-12T01:59:51.499Z,1019.41
2022-11-12T02:00:51.497Z,1019.41
2022-11-12T02:01:51.418Z,1019.37
2022-11-12T02:02:51.563Z,1019.40
2022-11-12T02:03:51.440Z,1019.43
2022-11-12T02:04:51.372Z,1019.42
2022-11-12T02:05:51.391Z,1019.43
2022-11-12T02:06:51.401Z,1019.43
2022-11-12T02:07:51.345Z,1019.44
2022-11-12T02:08:51.349Z,1019.42
2022-11-12T02:09:51.373Z,1019.48
2022-11-12T02:10:51.316Z,1019.43
2022-11-12T02:11:51.382Z,1019.46
2022-11-12T02:12:51.287Z,1019.47
2022-11-12T02:13:51.276Z,1019.43
2022-11-12T02:14:51.312Z,1019.44
2022-11-12T02:15:51.259Z,1019.42
2022-11-12T02:16:51.252Z,1019.45
2022-11-12T02:17:51.236Z,1019.44
2022-11-12T02:18:51.339Z,1019.50
2022-11-12T02:19:51.273Z,1019.42
2022-11-12T02:20:51.226Z,1019.48
2022-11-12T02:21:51.185Z,1019.50
2022-11-12T02:22:51.181Z,1019.49
2022-11-12T02:23:51.173Z,1019.48
2022-11-12T02:24:51.161Z,1019.49
2022-11-12T02:25:51.272Z,1019.47
2022-11-12T02:26:51.149Z,1019.55
2022-11-12T02:27:51.178Z,1019.55
2022-11-12T02:28:51.104Z,1019.49
2022-11-12T02:29:51.183Z,1019.48
2022-11-12T02:30:51.117Z,1019.51
2022-11-12T02:31:51.108Z,1019.56
2022-11-12T02:32:51.060Z,1019.53
2022-11-12T02:33:51.175Z,1019.51
2022-11-12T02:34:51.158Z,1019.49
2022-11-12T02:35:51.064Z,1019.47
2022-11-12T02:36:51.029Z,1019.50
2022-11-12T02:37:51.014Z,1019.47
2022-11-12T02:38:51.185Z,1019.40
2022-11-12T02:39:50.997Z,1019.41
2022-11-12T02:40:50.977Z,1019.43
2022-11-12T02:41:50.960Z,1019.42
2022-11-12T02:42:50.966Z,1019.44
2022-11-12T02:43:50.975Z,1019.42
2022-11-12T02:44:50.927Z,1019.45
2022-11-12T02:45:50.915Z,1019.46
2022-11-12T02:46:50.918Z,1019.44
2022-11-12T02:47:50.919Z,1019.45
2022-11-12T02:48:50.920Z,1019.47
2022-11-12T02:49:50.870Z,1019.47
2022-11-12T02:50:50.982Z,1019.50
2022-11-12T02:51:50.853Z,1019.52
2022-11-12T02:52:50.872Z,1019.55
2022-11-12T02:53:50.826Z,1019.51
2022-11-12T02:54:50.858Z,1019.54
2022-11-12T02:55:50.803Z,1019.56
2022-11-12T02:56:50.793Z,1019.57
2022-11-12T02:57:50.781Z,1019.60
2022-11-12T02:58:51.034Z,1019.59
2022-11-12T02:59:50.795Z,1019.58
2022-11-12T03:00:50.857Z,1019.59
2022-11-12T03:01:50.740Z,1019.56
2022-11-12T03:02:50.727Z,1019.61
2022-11-12T03:03:50.718Z,1019.60
2022-11-12T03:04:50.738Z,1019.62
2022-11-12T03:05:50.732Z,1019.59
2022-11-12T03:06:50.822Z,1019.61
2022-11-12T03:07:50.679Z,1019.60
2022-11-12T03:08:50.664Z,1019.60
2022-11-12T03:09:51.873Z,1019.58
2022-11-12T03:10:50.673Z,1019.62
2022-11-12T03:11:50.635Z,1019.60
2022-11-12T03:12:50.643Z,1019.65
2022-11-12T03:13:50.651Z,1019.67
2022-11-12T03:14:50.599Z,1019.66
2022-11-12T03:15:50.595Z,1019.69
2022-11-12T03:16:50.573Z,1019.63
2022-11-12T03:17:50.574Z,1019.72
2022-11-12T03:18:50.585Z,1019.69
2022-11-12T03:19:50.542Z,1019.65
2022-11-12T03:20:50.538Z,1019.71
2022-11-12T03:21:50.533Z,1019.67
2022-11-12T03:22:50.659Z,1019.65
2022-11-12T03:23:50.504Z,1019.65
2022-11-12T03:24:50.519Z,1019.66
2022-11-12T03:25:50.516Z,1019.69
2022-11-12T03:26:50.503Z,1019.72
2022-11-12T03:27:50.463Z,1019.71
2022-11-12T03:28:50.445Z,1019.73
2022-11-12T03:29:50.442Z,1019.68
2022-11-12T03:30:50.426Z,1019.72
2022-11-12T03:31:50.436Z,1019.77
2022-11-12T03:32:50.409Z,1019.74
2022-11-12T03:33:50.388Z,1019.77
2022-11-12T03:34:54.367Z,1019.84
2022-11-12T03:35:50.401Z,1019.83
2022-11-12T03:36:50.394Z,1019.84
2022-11-12T03:37:50.402Z,1019.78
2022-11-12T03:38:50.452Z,1019.81
2022-11-12T03:39:50.325Z,1019.86
2022-11-12T03:40:50.317Z,1019.81
2022-11-12T03:41:50.315Z,1019.77
2022-11-12T03:42:50.331Z,1019.77
2022-11-12T03:43:50.281Z,1019.73
2022-11-12T03:44:50.282Z,1019.74
2022-11-12T03:45:50.274Z,1019.71
2022-11-12T03:46:50.258Z,1019.74
2022-11-12T03:47:50.254Z,1019.68
2022-11-12T03:48:50.258Z,1019.71
2022-11-12T03:49:50.214Z,1019.68
2022-11-12T03:50:50.213Z,1019.63
2022-11-12T03:51:50.192Z,1019.61
2022-11-12T03:52:50.193Z,1019.60
2022-11-12T03:53:50.200Z,1019.56
2022-11-12T03:54:50.276Z,1019.62
2022-11-12T03:55:50.179Z,1019.60
2022-11-12T03:56:50.139Z,1019.57
2022-11-12T03:57:50.126Z,1019.53
2022-11-12T03:58:50.123Z,1019.58
2022-11-12T03:59:50.259Z,1019.60
2022-11-12T04:00:50.188Z,1019.55
2022-11-12T04:01:50.085Z,1019.57
2022-11-12T04:02:50.087Z,1019.59
2022-11-12T04:03:50.064Z,1019.58
2022-11-12T04:04:50.067Z,1019.58
2022-11-12T04:05:50.074Z,1019.63
2022-11-12T04:06:50.176Z,1019.56
2022-11-12T04:07:50.034Z,1019.53
2022-11-12T04:08:50.008Z,1019.58
2022-11-12T04:09:50.009Z,1019.56
2022-11-12T04:10:50.127Z,1019.53
2022-11-12T04:11:50.016Z,1019.54
2022-11-12T04:12:49.981Z,1019.54
2022-11-12T04:13:50.017Z,1019.53
2022-11-12T04:14:49.948Z,1019.56
2022-11-12T04:15:50.039Z,1019.51
2022-11-12T04:16:49.929Z,1019.59
2022-11-12T04:17:49.909Z,1019.51
2022-11-12T04:18:49.948Z,1019.53
2022-11-12T04:19:49.972Z,1019.51
2022-11-12T04:20:49.888Z,1019.48
2022-11-12T04:21:49.873Z,1019.51
2022-11-12T04:22:49.856Z,1019.56
2022-11-12T04:23:49.853Z,1019.59
2022-11-12T04:24:49.886Z,1019.57
2022-11-12T04:25:49.834Z,1019.56
2022-11-12T04:26:49.922Z,1019.52
2022-11-12T04:27:49.848Z,1019.51
2022-11-12T04:28:49.816Z,1019.51
2022-11-12T04:29:49.785Z,1019.44
2022-11-12T04:30:49.794Z,1019.49
2022-11-12T04:31:49.766Z,1019.49
2022-11-12T04:32:49.745Z,1019.46
2022-11-12T04:33:49.762Z,1019.49
2022-11-12T04:34:49.810Z,1019.46
2022-11-12T04:35:49.753Z,1019.41
2022-11-12T04:36:49.703Z,1019.42
2022-11-12T04:37:49.691Z,1019.43
2022-11-12T04:38:49.691Z,1019.45
2022-11-12T04:39:49.678Z,1019.41
2022-11-12T04:40:50.013Z,1019.45
2022-11-12T04:41:49.662Z,1019.41
2022-11-12T04:42:49.827Z,1019.45
2022-11-12T04:43:49.632Z,1019.39
2022-11-12T04:44:49.660Z,1019.40
2022-11-12T04:45:49.672Z,1019.42
2022-11-12T04:46:49.627Z,1019.41
2022-11-12T04:47:49.603Z,1019.41
2022-11-12T04:48:49.689Z,1019.42
2022-11-12T04:49:49.578Z,1019.44
2022-11-12T04:50:49.591Z,1019.47
2022-11-12T04:51:49.559Z,1019.42
2022-11-12T04:52:49.538Z,1019.46
2022-11-12T04:53:49.523Z,1019.40
2022-11-12T04:54:49.538Z,1019.39
2022-11-12T04:55:49.520Z,1019.45
2022-11-12T04:56:49.492Z,1019.40
2022-11-12T04:57:49.472Z,1019.47
2022-11-12T04:58:49.604Z,1019.50
2022-11-12T04:59:49.482Z,1019.50
2022-11-12T05:00:49.503Z,1019.54
2022-11-12T05:01:49.429Z,1019.53
2022-11-12T05:02:49.451Z,1019.55
2022-11-12T05:03:49.423Z,1019.51
2022-11-12T05:04:49.401Z,1019.56
2022-11-12T05:05:49.403Z,1019.60
2022-11-12T05:06:49.428Z,1019.60
2022-11-12T05:07:49.417Z,1019.58
2022-11-12T05:08:49.372Z,1019.57
2022-11-12T05:09:49.372Z,1019.59
2022-11-12T05:10:49.328Z,1019.53
2022-11-12T05:11:49.326Z,1019.58
2022-11-12T05:12:49.305Z,1019.56
2022-11-12T05:13:49.348Z,1019.61
2022-11-12T05:14:49.411Z,1019.56
2022-11-12T05:15:49.323Z,1019.61
2022-11-12T05:16:49.261Z,1019.56
2022-11-12T05:17:49.258Z,1019.56
2022-11-12T05:18:49.244Z,1019.59
2022-11-12T05:19:49.256Z,1019.59
2022-11-12T05:20:49.230Z,1019.63
2022-11-12T05:21:49.212Z,1019.62
2022-11-12T05:23:04.995Z,1019.63
2022-11-12T05:23:49.266Z,1019.62
2022-11-12T05:24:49.204Z,1019.67
2022-11-12T05:25:49.197Z,1019.65
2022-11-12T05:26:49.174Z,1019.68
2022-11-12T05:27:49.141Z,1019.69
2022-11-12T05:28:49.130Z,1019.65
2022-11-12T05:29:49.133Z,1019.70
2022-11-12T05:30:49.277Z,1019.72
2022-11-12T05:31:49.112Z,1019.78
2022-11-12T05:32:49.107Z,1019.72
2022-11-12T05:33:49.077Z,1019.71
2022-11-12T05:34:49.089Z,1019.79
2022-11-12T05:35:49.082Z,1019.77
2022-11-12T05:36:49.047Z,1019.81
2022-11-12T05:37:49.054Z,1019.76
2022-11-12T05:38:49.069Z,1019.82
2022-11-12T05:39:49.011Z,1019.81
2022-11-12T05:40:48.999Z,1019.85
2022-11-12T05:42:11.204Z,1019.85
2022-11-12T05:42:49.023Z,1019.83
2022-11-12T05:43:48.981Z,1019.80
2022-11-12T05:44:48.960Z,1019.83
2022-11-12T05:45:48.945Z,1019.83
2022-11-12T05:46:49.088Z,1019.81
2022-11-12T05:47:48.925Z,1019.88
2022-11-12T05:48:48.955Z,1019.90
2022-11-12T05:49:48.913Z,1019.85
2022-11-12T05:51:06.617Z,1019.85
2022-11-12T05:51:48.881Z,1019.88
2022-11-12T05:52:48.901Z,1019.93
2022-11-12T05:53:48.893Z,1019.89
2022-11-12T05:54:48.862Z,1019.98
2022-11-12T05:55:48.870Z,1019.97
2022-11-12T05:56:48.829Z,1019.98
2022-11-12T05:57:48.814Z,1019.97
2022-11-12T05:58:48.827Z,1019.99
2022-11-12T05:59:48.834Z,1019.98
2022-11-12T06:00:48.797Z,1020.00
2022-11-12T06:01:48.770Z,1019.99
2022-11-12T06:02:48.917Z,1019.95
2022-11-12T06:03:48.761Z,1020.05
2022-11-12T06:04:48.763Z,1020.05
2022-11-12T06:05:48.770Z,1020.00
2022-11-12T06:06:48.789Z,1020.03
2022-11-12T06:07:48.706Z,1020.05
2022-11-12T06:08:48.697Z,1020.04
2022-11-12T06:09:48.688Z,1020.05
2022-11-12T06:10:48.711Z,1020.07
2022-11-12T06:11:48.665Z,1020.08
2022-11-12T06:12:48.671Z,1020.10
2022-11-12T06:13:48.640Z,1020.08
2022-11-12T06:14:48.629Z,1020.10
2022-11-12T06:15:48.692Z,1020.09
2022-11-12T06:16:48.659Z,1020.09
2022-11-12T06:17:48.611Z,1020.07
2022-11-12T06:18:48.714Z,1020.07
2022-11-12T06:19:48.578Z,1020.08
2022-11-12T06:20:48.567Z,1020.08
2022-11-12T06:21:49.098Z,1020.04
2022-11-12T06:22:48.554Z,1020.08
2022-11-12T06:23:48.591Z,1020.03
2022-11-12T06:24:48.540Z,1020.07
2022-11-12T06:25:48.518Z,1020.06
2022-11-12T06:26:48.499Z,1020.09
2022-11-12T06:27:48.491Z,1020.13
2022-11-12T06:28:48.553Z,1020.07
2022-11-12T06:29:48.492Z,1020.12
2022-11-12T06:30:48.469Z,1020.10
2022-11-12T06:31:48.447Z,1020.08
2022-11-12T06:32:48.504Z,1020.13
2022-11-12T06:33:48.454Z,1020.17
2022-11-12T06:34:48.568Z,1020.08
2022-11-12T06:35:48.412Z,1020.06
2022-11-12T06:36:48.387Z,1020.05
2022-11-12T06:37:48.379Z,1020.06
2022-11-12T06:38:48.395Z,1020.06
2022-11-12T06:39:48.369Z,1020.09
2022-11-12T06:40:48.368Z,1020.12
2022-11-12T06:41:48.368Z,1020.13
2022-11-12T06:42:48.326Z,1020.10
2022-11-12T06:43:48.313Z,1020.11
2022-11-12T06:44:48.304Z,1020.13
2022-11-12T06:45:48.315Z,1020.13
2022-11-12T06:46:48.326Z,1020.13
2022-11-12T06:47:48.284Z,1020.20
2022-11-12T06:48:48.259Z,1020.22
2022-11-12T06:49:48.252Z,1020.17
2022-11-12T06:50:48.347Z,1020.21
2022-11-12T06:51:48.256Z,1020.19
2022-11-12T06:52:48.233Z,1020.28
2022-11-12T06:53:48.212Z,1020.23
2022-11-12T06:54:48.194Z,1020.17
2022-11-12T06:55:48.222Z,1020.19
2022-11-12T06:56:48.178Z,1020.18
2022-11-12T06:57:48.160Z,1020.21
2022-11-12T06:58:48.172Z,1020.20
2022-11-12T06:59:48.181Z,1020.18
2022-11-12T07:00:48.128Z,1020.29
2022-11-12T07:01:48.148Z,1020.23
2022-11-12T07:02:48.112Z,1020.24
2022-11-12T07:03:48.099Z,1020.22
2022-11-12T07:04:48.109Z,1020.19
2022-11-12T07:05:48.098Z,1020.24
2022-11-12T07:06:48.226Z,1020.17
2022-11-12T07:07:48.080Z,1020.27
2022-11-12T07:08:48.049Z,1020.20
2022-11-12T07:09:48.038Z,1020.23
2022-11-12T07:10:48.053Z,1020.21
2022-11-12T07:11:48.025Z,1020.19
2022-11-12T07:12:53.152Z,1020.25
2022-11-12T07:13:47.989Z,1020.22
2022-11-12T07:14:47.973Z,1020.29
2022-11-12T07:15:47.963Z,1020.23
2022-11-12T07:16:47.997Z,1020.27
2022-11-12T07:17:47.973Z,1020.27
2022-11-12T07:18:47.932Z,1020.31
2022-11-12T07:19:47.921Z,1020.31
2022-11-12T07:20:47.908Z,1020.29
2022-11-12T07:21:47.898Z,1020.31
2022-11-12T07:22:48.021Z,1020.27
2022-11-12T07:23:47.916Z,1020.23
2022-11-12T07:24:47.867Z,1020.26
2022-11-12T07:25:47.854Z,1020.24
2022-11-12T07:26:47.954Z,1020.23
2022-11-12T07:27:47.881Z,1020.33
2022-11-12T07:28:47.842Z,1020.28
2022-11-12T07:29:48.785Z,1020.29
2022-11-12T07:30:47.797Z,1020.27
2022-11-12T07:31:47.826Z,1020.35
2022-11-12T07:32:51.823Z,1020.27
2022-11-12T07:33:47.803Z,1020.28
2022-11-12T07:34:47.764Z,1020.25
2022-11-12T07:35:47.778Z,1020.26
2022-11-12T07:36:47.765Z,1020.18
2022-11-12T07:37:47.734Z,1020.19
2022-11-12T07:38:47.855Z,1020.16
2022-11-12T07:39:47.708Z,1020.17
2022-11-12T07:40:47.691Z,1020.16
2022-11-12T07:41:47.712Z,1020.17
2022-11-12T07:42:47.667Z,1020.17
2022-11-12T07:43:47.684Z,1020.13
2022-11-12T07:44:47.675Z,1020.15
2022-11-12T07:45:47.640Z,1020.15
2022-11-12T07:46:47.637Z,1020.16
2022-11-12T07:47:47.615Z,1020.15
2022-11-12T07:48:47.607Z,1020.14
2022-11-12T07:49:47.619Z,1020.17
2022-11-12T07:50:47.580Z,1020.09
2022-11-12T07:51:47.576Z,1020.10
2022-11-12T07:52:47.589Z,1020.13
2022-11-12T07:53:47.554Z,1020.14
2022-11-12T07:54:47.658Z,1020.17
2022-11-12T07:55:47.529Z,1020.16
2022-11-12T07:56:47.550Z,1020.16
2022-11-12T07:57:47.518Z,1020.12
2022-11-12T07:58:47.496Z,1020.12
2022-11-12T07:59:47.483Z,1020.12
2022-11-12T08:00:47.508Z,1020.11
2022-11-12T08:01:47.586Z,1020.05
2022-11-12T08:02:47.470Z,1020.05
2022-11-12T08:03:47.452Z,1020.07
2022-11-12T08:04:47.427Z,1020.04
2022-11-12T08:05:47.442Z,1020.07
2022-11-12T08:06:47.659Z,1020.08
2022-11-12T08:07:47.530Z,1020.07
2022-11-12T08:08:47.389Z,1020.10
2022-11-12T08:09:47.401Z,1020.13
2022-11-12T08:10:47.510Z,1020.12
2022-11-12T08:11:47.360Z,1020.16
2022-11-12T08:12:47.366Z,1020.09
2022-11-12T08:13:47.329Z,1020.08
2022-11-12T08:14:47.326Z,1020.18
2022-11-12T08:15:52.111Z,1020.11
2022-11-12T08:16:47.299Z,1020.10
2022-11-12T08:17:47.295Z,1020.11
2022-11-12T08:18:47.306Z,1020.02
2022-11-12T08:19:47.264Z,1020.07
2022-11-12T08:20:47.268Z,1020.03
2022-11-12T08:21:47.243Z,1020.04
2022-11-12T08:22:49.356Z,1020.02
2022-11-12T08:23:47.255Z,1020.02
2022-11-12T08:24:47.863Z,1020.07
2022-11-12T08:25:47.197Z,1020.03
2022-11-12T08:26:47.354Z,1020.05
2022-11-12T08:27:47.180Z,1020.08
2022-11-12T08:28:47.165Z,1020.08
2022-11-12T08:29:47.155Z,1020.08
2022-11-12T08:30:47.146Z,1020.06
2022-11-12T08:31:47.132Z,1020.11
2022-11-12T08:32:47.143Z,1020.08
2022-11-12T08:33:47.149Z,1020.07
2022-11-12T08:34:47.101Z,1020.15
2022-11-12T08:35:47.095Z,1020.19
2022-11-12T08:36:47.075Z,1020.22
2022-11-12T08:37:47.093Z,1020.15
2022-11-12T08:38:47.063Z,1020.21
2022-11-12T08:39:47.077Z,1020.14
2022-11-12T08:40:47.044Z,1020.20
2022-11-12T08:41:47.033Z,1020.16
2022-11-12T08:42:47.157Z,1020.22
2022-11-12T08:43:47.009Z,1020.22
2022-11-12T08:44:47.000Z,1020.21
2022-11-12T08:45:46.985Z,1020.24
2022-11-12T08:46:46.972Z,1020.31
2022-11-12T08:47:46.987Z,1020.30
2022-11-12T08:48:46.943Z,1020.33
2022-11-12T08:49:48.334Z,1020.24
2022-11-12T08:50:46.953Z,1020.29
2022-11-12T08:51:46.921Z,1020.28
2022-11-12T08:52:46.904Z,1020.22
2022-11-12T08:53:46.913Z,1020.22
2022-11-12T08:54:46.883Z,1020.25
2022-11-12T08:55:46.874Z,1020.17
2022-11-12T08:56:46.858Z,1020.22
2022-11-12T08:57:46.842Z,1020.18
2022-11-12T08:58:46.985Z,1020.21
2022-11-12T08:59:46.823Z,1020.22
2022-11-12T09:00:46.853Z,1020.28
2022-11-12T09:01:46.849Z,1020.24
2022-11-12T09:02:46.830Z,1020.18
2022-11-12T09:03:46.777Z,1020.18
2022-11-12T09:04:46.799Z,1020.16
2022-11-12T09:05:46.788Z,1020.18
2022-11-12T09:06:52.699Z,1020.12
2022-11-12T09:07:50.876Z,1020.10
2022-11-12T09:08:46.735Z,1020.10
2022-11-12T09:09:46.711Z,1020.06
2022-11-12T09:10:46.711Z,1020.06
2022-11-12T09:11:46.781Z,1020.09
2022-11-12T09:12:46.710Z,1020.07
2022-11-12T09:13:46.767Z,1020.18
2022-11-12T09:14:46.792Z,1020.07
2022-11-12T09:15:46.645Z,1020.05
2022-11-12T09:16:46.634Z,1020.05
2022-11-12T09:17:46.621Z,1020.08
2022-11-12T09:18:46.614Z,1020.05
2022-11-12T09:19:46.633Z,1020.07
2022-11-12T09:20:46.586Z,1020.09
2022-11-12T09:21:46.603Z,1020.15
2022-11-12T09:22:46.566Z,1020.18
2022-11-12T09:23:46.556Z,1020.16
2022-11-12T09:24:46.552Z,1020.09
2022-11-12T09:25:46.558Z,1020.09
2022-11-12T09:26:46.548Z,1020.10
2022-11-12T09:27:48.638Z,1020.13
2022-11-12T09:28:46.510Z,1020.04
2022-11-12T09:29:46.513Z,1020.12
2022-11-12T09:30:46.821Z,1020.13
2022-11-12T09:31:46.531Z,1020.13
2022-11-12T09:32:46.485Z,1020.12
2022-11-12T09:33:46.453Z,1020.18
2022-11-12T09:34:46.432Z,1020.11
2022-11-12T09:35:46.451Z,1020.12
2022-11-12T09:36:46.411Z,1020.11
2022-11-12T09:37:46.435Z,1020.07
2022-11-12T09:38:46.386Z,1020.10
2022-11-12T09:39:46.382Z,1020.13
2022-11-12T09:40:47.383Z,1020.10
2022-11-12T09:41:46.360Z,1020.11
2022-11-12T09:42:46.347Z,1020.11
2022-11-12T09:43:46.372Z,1020.10
2022-11-12T09:44:46.320Z,1020.12
2022-11-12T09:46:00.006Z,1020.08
2022-11-12T09:46:46.416Z,1020.09
2022-11-12T09:47:46.299Z,1020.10
2022-11-12T09:48:46.314Z,1020.08
2022-11-12T09:49:46.313Z,1020.10
2022-11-12T09:50:46.319Z,1020.06
2022-11-12T09:51:46.242Z,1020.09
2022-11-12T09:52:46.239Z,1020.11
2022-11-12T09:53:46.246Z,1020.17
2022-11-12T09:54:46.252Z,1020.16
2022-11-12T09:55:46.198Z,1020.14
2022-11-12T09:56:46.217Z,1020.13
2022-11-12T09:57:46.213Z,1020.16
2022-11-12T09:58:46.182Z,1020.13
2022-11-12T09:59:46.154Z,1020.15
2022-11-12T10:00:46.146Z,1020.20
2022-11-12T10:01:46.170Z,1020.21
2022-11-12T10:02:46.264Z,1020.21
2022-11-12T10:03:46.113Z,1020.24
2022-11-12T10:04:46.114Z,1020.19
2022-11-12T10:05:46.118Z,1020.27
2022-11-12T10:06:46.115Z,1020.26
2022-11-12T10:07:46.131Z,1020.21
2022-11-12T10:08:46.060Z,1020.18
2022-11-12T10:09:46.050Z,1020.18
2022-11-12T10:10:46.050Z,1020.14
2022-11-12T10:11:46.020Z,1020.23
2022-11-12T10:12:46.060Z,1020.15
2022-11-12T10:13:46.024Z,1020.25
2022-11-12T10:14:45.990Z,1020.20
2022-11-12T10:15:45.989Z,1020.23
2022-11-12T10:16:46.058Z,1020.24
2022-11-12T10:17:46.019Z,1020.20
2022-11-12T10:18:46.078Z,1020.26
2022-11-12T10:19:45.952Z,1020.24
2022-11-12T10:20:45.936Z,1020.28
2022-11-12T10:21:45.924Z,1020.35
2022-11-12T10:22:45.923Z,1020.26
2022-11-12T10:23:45.949Z,1020.24
2022-11-12T10:24:45.883Z,1020.25
2022-11-12T10:25:45.894Z,1020.28
2022-11-12T10:26:45.857Z,1020.27
2022-11-12T10:27:45.859Z,1020.31
2022-11-12T10:28:45.876Z,1020.28
2022-11-12T10:29:45.866Z,1020.23
2022-11-12T10:30:45.818Z,1020.25
2022-11-12T10:31:45.803Z,1020.22
2022-11-12T10:32:45.796Z,1020.18
2022-11-12T10:33:45.794Z,1020.22
2022-11-12T10:34:45.927Z,1020.18
2022-11-12T10:35:45.778Z,1020.28
2022-11-12T10:36:45.746Z,1020.27
2022-11-12T10:37:45.776Z,1020.25
2022-11-12T10:38:45.729Z,1020.32
2022-11-12T10:39:45.729Z,1020.30
2022-11-12T10:40:45.724Z,1020.29
2022-11-12T10:41:45.690Z,1020.23
2022-11-12T10:42:45.699Z,1020.23
2022-11-12T10:43:45.702Z,1020.22
2022-11-12T10:44:45.674Z,1020.21
2022-11-12T10:45:45.679Z,1020.18
2022-11-12T10:46:45.687Z,1020.13
2022-11-12T10:47:45.631Z,1020.18
2022-11-12T10:48:45.647Z,1020.14
2022-11-12T10:49:45.643Z,1020.14
2022-11-12T10:50:45.707Z,1020.10
2022-11-12T10:51:45.592Z,1020.07
2022-11-12T10:52:45.572Z,1020.05
2022-11-12T10:53:45.579Z,1020.04
2022-11-12T10:54:47.667Z,1020.05
2022-11-12T10:55:45.571Z,1020.06
2022-11-12T10:56:45.555Z,1020.07
2022-11-12T10:57:45.530Z,1020.09
2022-11-12T10:58:45.686Z,1020.12
2022-11-12T10:59:45.506Z,1020.11
2022-11-12T11:00:45.517Z,1020.16
2022-11-12T11:01:46.248Z,1020.16
2022-11-12T11:02:45.488Z,1020.16
2022-11-12T11:03:45.449Z,1020.09
2022-11-12T11:04:45.453Z,1020.17
2022-11-12T11:05:45.492Z,1020.21
2022-11-12T11:06:45.589Z,1020.08
2022-11-12T11:07:45.414Z,1020.12
2022-11-12T11:08:45.401Z,1020.14
2022-11-12T11:09:45.453Z,1020.15
2022-11-12T11:10:45.373Z,1020.14
2022-11-12T11:11:45.400Z,1020.08
2022-11-12T11:12:45.352Z,1020.06
2022-11-12T11:13:45.368Z,1020.11
2022-11-12T11:14:45.367Z,1020.04
2022-11-12T11:15:45.328Z,1020.05
2022-11-12T11:16:45.304Z,1020.04
2022-11-12T11:17:45.328Z,1020.00
2022-11-12T11:18:45.321Z,1020.00
2022-11-12T11:19:45.277Z,1020.06
2022-11-12T11:20:45.265Z,1020.06
2022-11-12T11:21:45.264Z,1020.05
2022-11-12T11:22:45.381Z,1020.09
2022-11-12T11:23:45.233Z,1020.08
2022-11-12T11:24:45.220Z,1020.04
2022-11-12T11:25:45.218Z,1020.02
2022-11-12T11:26:45.225Z,1020.02
2022-11-12T11:27:45.183Z,1019.99
2022-11-12T11:28:45.214Z,1019.95
2022-11-12T11:29:45.185Z,1019.91
2022-11-12T11:30:45.149Z,1019.94
2022-11-12T11:31:45.144Z,1019.93
2022-11-12T11:32:45.125Z,1019.97
2022-11-12T11:33:45.114Z,1019.97
2022-11-12T11:34:45.131Z,1019.89
2022-11-12T11:35:45.109Z,1019.90
2022-11-12T11:36:45.088Z,1019.87
2022-11-12T11:37:45.087Z,1019.85
2022-11-12T11:38:45.209Z,1019.81
2022-11-12T11:39:45.051Z,1019.83
2022-11-12T11:40:45.047Z,1019.80
2022-11-12T11:41:45.024Z,1019.83
2022-11-12T11:42:45.026Z,1019.84
2022-11-12T11:43:45.105Z,1019.80
2022-11-12T11:44:45.028Z,1019.78
2022-11-12T11:45:44.981Z,1019.79
2022-11-12T11:46:44.997Z,1019.83
2022-11-12T11:48:00.567Z,1019.78
2022-11-12T11:48:44.974Z,1019.75
2022-11-12T11:49:44.940Z,1019.68
2022-11-12T11:50:44.925Z,1019.69
2022-11-12T11:51:44.981Z,1019.66
2022-11-12T11:52:44.912Z,1019.68
2022-11-12T11:53:44.893Z,1019.63
2022-11-12T11:54:45.006Z,1019.68
2022-11-12T11:55:44.892Z,1019.64
2022-11-12T11:56:44.877Z,1019.68
2022-11-12T11:57:44.867Z,1019.67
2022-11-12T11:58:44.870Z,1019.64
2022-11-12T11:59:44.830Z,1019.60
2022-11-12T12:00:44.822Z,1019.61
2022-11-12T12:01:44.806Z,1019.56
2022-11-12T12:02:44.794Z,1019.56
2022-11-12T12:03:44.832Z,1019.55
2022-11-12T12:04:44.805Z,1019.51
2022-11-12T12:05:44.769Z,1019.57